sensor_id;sensor_type;location;lat;lon;timestamp;P1;durP1;ratioP1;P2;durP2;ratioP2
4903;SDS011;2467;48.142;11.616;2023-02-01T00:00:28;4.18;;;3.40;;
4903;SDS011;2467;48.142;11.616;2023-02-01T00:01:04;4.72;;;3.20;;
4903;SDS011;2467;48.142;11.616;2023-02-01T00:01:36;4.13;;;3.72;;
4903;SDS011;2467;48.142;11.616;2023-02-01T00:02:09;3.85;;;3.42;;
4903;SDS011;2467;48.142;11.616;2023-02-01T00:02:41;4.60;;;3.45;;
4903;SDS011;2467;48.142;11.616;2023-02-01T00:03:14;4.70;;;3.28;;
4903;SDS011;2467;48.142;11.616;2023-02-01T00:03:46;3.30;;;3.00;;
4903;SDS011;2467;48.142;11.616;2023-02-01T00:04:18;4.07;;;3.00;;
4903;SDS011;2467;48.142;11.616;2023-02-01T00:04:50;4.78;;;4.28;;
4903;SDS011;2467;48.142;11.616;2023-02-01T00:05:22;9.40;;;5.65;;
4903;SDS011;2467;48.142;11.616;2023-02-01T00:05:55;4.60;;;3.97;;
4903;SDS011;2467;48.142;11.616;2023-02-01T00:06:29;7.75;;;6.43;;
4903;SDS011;2467;48.142;11.616;2023-02-01T00:07:00;6.07;;;5.50;;
4903;SDS011;2467;48.142;11.616;2023-02-01T00:07:32;5.00;;;3.55;;
4903;SDS011;2467;48.142;11.616;2023-02-01T00:08:05;4.30;;;3.90;;
4903;SDS011;2467;48.142;11.616;2023-02-01T00:08:37;4.13;;;3.75;;
4903;SDS011;2467;48.142;11.616;2023-02-01T00:09:09;3.75;;;3.40;;
4903;SDS011;2467;48.142;11.616;2023-02-01T00:09:42;3.70;;;3.00;;
4903;SDS011;2467;48.142;11.616;2023-02-01T00:10:13;3.70;;;3.33;;
4903;SDS011;2467;48.142;11.616;2023-02-01T00:10:45;4.80;;;3.13;;
4903;SDS011;2467;48.142;11.616;2023-02-01T00:11:18;3.53;;;3.05;;
4903;SDS011;2467;48.142;11.616;2023-02-01T00:11:52;5.05;;;3.40;;
4903;SDS011;2467;48.142;11.616;2023-02-01T00:12:24;3.58;;;3.10;;
4903;SDS011;2467;48.142;11.616;2023-02-01T00:12:56;4.50;;;3.05;;
4903;SDS011;2467;48.142;11.616;2023-02-01T00:13:29;2.60;;;2.40;;
4903;SDS011;2467;48.142;11.616;2023-02-01T00:14:01;3.75;;;2.90;;
4903;SDS011;2467;48.142;11.616;2023-02-01T00:14:34;3.88;;;3.30;;
4903;SDS011;2467;48.142;11.616;2023-02-01T00:15:09;2.90;;;2.70;;
4903;SDS011;2467;48.142;11.616;2023-02-01T00:15:41;3.88;;;3.28;;
4903;SDS011;2467;48.142;11.616;2023-02-01T00:16:14;6.07;;;3.53;;
4903;SDS011;2467;48.142;11.616;2023-02-01T00:16:48;4.00;;;3.33;;
4903;SDS011;2467;48.142;11.616;2023-02-01T00:17:20;3.17;;;2.88;;
4903;SDS011;2467;48.142;11.616;2023-02-01T00:17:53;4.82;;;4.45;;
4903;SDS011;2467;48.142;11.616;2023-02-01T00:18:25;4.50;;;3.50;;
4903;SDS011;2467;48.142;11.616;2023-02-01T00:18:58;3.78;;;3.10;;
4903;SDS011;2467;48.142;11.616;2023-02-01T00:19:33;4.10;;;3.08;;
4903;SDS011;2467;48.142;11.616;2023-02-01T00:20:05;4.28;;;2.83;;
4903;SDS011;2467;48.142;11.616;2023-02-01T00:20:39;3.65;;;2.53;;
4903;SDS011;2467;48.142;11.616;2023-02-01T00:21:17;3.53;;;2.60;;
4903;SDS011;2467;48.142;11.616;2023-02-01T00:21:53;5.22;;;3.95;;
4903;SDS011;2467;48.142;11.616;2023-02-01T00:22:25;6.80;;;3.13;;
4903;SDS011;2467;48.142;11.616;2023-02-01T00:22:58;3.67;;;3.33;;
4903;SDS011;2467;48.142;11.616;2023-02-01T00:23:31;3.92;;;2.92;;
4903;SDS011;2467;48.142;11.616;2023-02-01T00:24:04;4.70;;;3.75;;
4903;SDS011;2467;48.142;11.616;2023-02-01T00:24:37;2.80;;;2.60;;
4903;SDS011;2467;48.142;11.616;2023-02-01T00:25:09;3.65;;;3.22;;
4903;SDS011;2467;48.142;11.616;2023-02-01T00:25:41;3.30;;;3.05;;
4903;SDS011;2467;48.142;11.616;2023-02-01T00:26:14;4.28;;;3.25;;
4903;SDS011;2467;48.142;11.616;2023-02-01T00:26:47;5.97;;;3.45;;
4903;SDS011;2467;48.142;11.616;2023-02-01T00:27:21;2.83;;;2.50;;
4903;SDS011;2467;48.142;11.616;2023-02-01T00:27:53;3.38;;;3.00;;
4903;SDS011;2467;48.142;11.616;2023-02-01T00:28:26;5.93;;;3.33;;
4903;SDS011;2467;48.142;11.616;2023-02-01T00:28:58;4.15;;;3.70;;
4903;SDS011;2467;48.142;11.616;2023-02-01T00:29:30;5.35;;;3.00;;
4903;SDS011;2467;48.142;11.616;2023-02-01T00:30:02;4.22;;;3.08;;
4903;SDS011;2467;48.142;11.616;2023-02-01T00:30:36;3.85;;;3.38;;
4903;SDS011;2467;48.142;11.616;2023-02-01T00:31:08;6.25;;;3.25;;
4903;SDS011;2467;48.142;11.616;2023-02-01T00:31:40;3.25;;;2.95;;
4903;SDS011;2467;48.142;11.616;2023-02-01T00:32:13;3.20;;;2.90;;
4903;SDS011;2467;48.142;11.616;2023-02-01T00:32:45;3.47;;;2.80;;
4903;SDS011;2467;48.142;11.616;2023-02-01T00:33:17;5.72;;;3.10;;
4903;SDS011;2467;48.142;11.616;2023-02-01T00:33:49;2.97;;;2.70;;
4903;SDS011;2467;48.142;11.616;2023-02-01T00:34:21;5.07;;;2.80;;
4903;SDS011;2467;48.142;11.616;2023-02-01T00:34:54;3.50;;;3.20;;
4903;SDS011;2467;48.142;11.616;2023-02-01T00:35:27;3.28;;;3.00;;
4903;SDS011;2467;48.142;11.616;2023-02-01T00:35:59;3.30;;;2.75;;
4903;SDS011;2467;48.142;11.616;2023-02-01T00:36:32;4.25;;;2.50;;
4903;SDS011;2467;48.142;11.616;2023-02-01T00:37:05;3.40;;;2.75;;
4903;SDS011;2467;48.142;11.616;2023-02-01T00:37:37;3.58;;;2.88;;
4903;SDS011;2467;48.142;11.616;2023-02-01T00:38:09;3.70;;;3.22;;
4903;SDS011;2467;48.142;11.616;2023-02-01T00:38:41;4.30;;;2.95;;
4903;SDS011;2467;48.142;11.616;2023-02-01T00:39:14;3.28;;;2.97;;
4903;SDS011;2467;48.142;11.616;2023-02-01T00:39:46;2.60;;;2.40;;
4903;SDS011;2467;48.142;11.616;2023-02-01T00:40:20;2.75;;;2.25;;
4903;SDS011;2467;48.142;11.616;2023-02-01T00:40:53;3.80;;;3.10;;
4903;SDS011;2467;48.142;11.616;2023-02-01T00:41:25;2.38;;;2.17;;
4903;SDS011;2467;48.142;11.616;2023-02-01T00:41:59;3.20;;;2.78;;
4903;SDS011;2467;48.142;11.616;2023-02-01T00:42:33;7.43;;;3.38;;
4903;SDS011;2467;48.142;11.616;2023-02-01T00:43:05;3.25;;;2.95;;
4903;SDS011;2467;48.142;11.616;2023-02-01T00:43:38;4.72;;;3.17;;
4903;SDS011;2467;48.142;11.616;2023-02-01T00:44:11;3.78;;;3.20;;
4903;SDS011;2467;48.142;11.616;2023-02-01T00:44:42;3.20;;;2.90;;
4903;SDS011;2467;48.142;11.616;2023-02-01T00:45:15;3.53;;;2.78;;
4903;SDS011;2467;48.142;11.616;2023-02-01T00:45:47;4.57;;;2.80;;
4903;SDS011;2467;48.142;11.616;2023-02-01T00:46:19;3.78;;;3.08;;
4903;SDS011;2467;48.142;11.616;2023-02-01T00:46:52;3.50;;;3.05;;
4903;SDS011;2467;48.142;11.616;2023-02-01T00:47:25;3.88;;;3.47;;
4903;SDS011;2467;48.142;11.616;2023-02-01T00:47:57;4.18;;;3.38;;
4903;SDS011;2467;48.142;11.616;2023-02-01T00:48:29;5.28;;;3.03;;
4903;SDS011;2467;48.142;11.616;2023-02-01T00:49:02;3.15;;;2.85;;
4903;SDS011;2467;48.142;11.616;2023-02-01T00:49:34;3.70;;;3.20;;
4903;SDS011;2467;48.142;11.616;2023-02-01T00:50:07;3.63;;;2.95;;
4903;SDS011;2467;48.142;11.616;2023-02-01T00:50:41;3.40;;;2.65;;
4903;SDS011;2467;48.142;11.616;2023-02-01T00:51:14;3.78;;;3.47;;
4903;SDS011;2467;48.142;11.616;2023-02-01T00:51:47;4.47;;;3.17;;
4903;SDS011;2467;48.142;11.616;2023-02-01T00:52:20;5.50;;;3.40;;
4903;SDS011;2467;48.142;11.616;2023-02-01T00:52:51;3.75;;;3.25;;
4903;SDS011;2467;48.142;11.616;2023-02-01T00:53:23;3.13;;;2.83;;
4903;SDS011;2467;48.142;11.616;2023-02-01T00:53:56;4.20;;;3.67;;
4903;SDS011;2467;48.142;11.616;2023-02-01T00:54:28;4.85;;;4.15;;
4903;SDS011;2467;48.142;11.616;2023-02-01T00:55:01;3.40;;;3.10;;
4903;SDS011;2467;48.142;11.616;2023-02-01T00:55:33;3.72;;;3.40;;
4903;SDS011;2467;48.142;11.616;2023-02-01T00:56:05;4.60;;;3.45;;
4903;SDS011;2467;48.142;11.616;2023-02-01T00:56:38;4.03;;;3.63;;
4903;SDS011;2467;48.142;11.616;2023-02-01T00:57:11;3.83;;;2.92;;
4903;SDS011;2467;48.142;11.616;2023-02-01T00:57:44;2.80;;;2.55;;
4903;SDS011;2467;48.142;11.616;2023-02-01T00:58:16;4.60;;;3.75;;
4903;SDS011;2467;48.142;11.616;2023-02-01T00:58:48;3.95;;;3.20;;
4903;SDS011;2467;48.142;11.616;2023-02-01T00:59:21;3.42;;;3.10;;
4903;SDS011;2467;48.142;11.616;2023-02-01T00:59:53;4.00;;;3.15;;
4903;SDS011;2467;48.142;11.616;2023-02-01T01:00:26;4.65;;;3.40;;
4903;SDS011;2467;48.142;11.616;2023-02-01T01:01:01;3.95;;;3.65;;
4903;SDS011;2467;48.142;11.616;2023-02-01T01:01:35;4.43;;;3.60;;
4903;SDS011;2467;48.142;11.616;2023-02-01T01:02:08;3.97;;;3.67;;
4903;SDS011;2467;48.142;11.616;2023-02-01T01:02:39;4.30;;;3.70;;
4903;SDS011;2467;48.142;11.616;2023-02-01T01:03:12;4.35;;;3.35;;
4903;SDS011;2467;48.142;11.616;2023-02-01T01:03:50;4.40;;;3.85;;
4903;SDS011;2467;48.142;11.616;2023-02-01T01:04:23;5.07;;;3.85;;
4903;SDS011;2467;48.142;11.616;2023-02-01T01:04:55;5.20;;;3.70;;
4903;SDS011;2467;48.142;11.616;2023-02-01T01:05:28;3.65;;;3.35;;
4903;SDS011;2467;48.142;11.616;2023-02-01T01:06:06;3.42;;;3.13;;
4903;SDS011;2467;48.142;11.616;2023-02-01T01:06:38;3.85;;;3.50;;
4903;SDS011;2467;48.142;11.616;2023-02-01T01:07:11;4.88;;;3.42;;
4903;SDS011;2467;48.142;11.616;2023-02-01T01:07:43;4.68;;;4.28;;
4903;SDS011;2467;48.142;11.616;2023-02-01T01:08:15;5.75;;;4.43;;
4903;SDS011;2467;48.142;11.616;2023-02-01T01:08:50;4.03;;;3.65;;
4903;SDS011;2467;48.142;11.616;2023-02-01T01:09:22;3.90;;;3.30;;
4903;SDS011;2467;48.142;11.616;2023-02-01T01:09:55;4.68;;;4.20;;
4903;SDS011;2467;48.142;11.616;2023-02-01T01:10:27;4.43;;;3.97;;
4903;SDS011;2467;48.142;11.616;2023-02-01T01:10:59;3.92;;;3.63;;
4903;SDS011;2467;48.142;11.616;2023-02-01T01:11:37;4.05;;;3.65;;
4903;SDS011;2467;48.142;11.616;2023-02-01T01:12:09;6.80;;;3.63;;
4903;SDS011;2467;48.142;11.616;2023-02-01T01:12:41;3.95;;;3.58;;
4903;SDS011;2467;48.142;11.616;2023-02-01T01:13:15;4.80;;;4.05;;
4903;SDS011;2467;48.142;11.616;2023-02-01T01:13:47;4.40;;;4.10;;
4903;SDS011;2467;48.142;11.616;2023-02-01T01:14:20;5.47;;;4.03;;
4903;SDS011;2467;48.142;11.616;2023-02-01T01:14:52;4.45;;;4.05;;
4903;SDS011;2467;48.142;11.616;2023-02-01T01:15:24;4.72;;;4.07;;
4903;SDS011;2467;48.142;11.616;2023-02-01T01:15:59;4.40;;;4.00;;
4903;SDS011;2467;48.142;11.616;2023-02-01T01:16:33;5.15;;;4.65;;
4903;SDS011;2467;48.142;11.616;2023-02-01T01:17:06;4.68;;;4.28;;
4903;SDS011;2467;48.142;11.616;2023-02-01T01:17:38;5.10;;;4.55;;
4903;SDS011;2467;48.142;11.616;2023-02-01T01:18:10;4.35;;;3.65;;
4903;SDS011;2467;48.142;11.616;2023-02-01T01:18:42;5.13;;;3.90;;
4903;SDS011;2467;48.142;11.616;2023-02-01T01:19:16;6.03;;;4.60;;
4903;SDS011;2467;48.142;11.616;2023-02-01T01:19:47;5.70;;;4.05;;
4903;SDS011;2467;48.142;11.616;2023-02-01T01:20:19;4.38;;;3.97;;
4903;SDS011;2467;48.142;11.616;2023-02-01T01:20:53;5.15;;;3.97;;
4903;SDS011;2467;48.142;11.616;2023-02-01T01:21:25;5.22;;;4.15;;
4903;SDS011;2467;48.142;11.616;2023-02-01T01:21:57;4.65;;;4.15;;
4903;SDS011;2467;48.142;11.616;2023-02-01T01:22:30;5.55;;;4.45;;
4903;SDS011;2467;48.142;11.616;2023-02-01T01:23:02;4.28;;;3.88;;
4903;SDS011;2467;48.142;11.616;2023-02-01T01:23:35;4.22;;;3.83;;
4903;SDS011;2467;48.142;11.616;2023-02-01T01:24:08;7.68;;;4.90;;
4903;SDS011;2467;48.142;11.616;2023-02-01T01:24:40;6.00;;;5.18;;
4903;SDS011;2467;48.142;11.616;2023-02-01T01:25:13;4.18;;;3.78;;
4903;SDS011;2467;48.142;11.616;2023-02-01T01:25:45;5.10;;;4.25;;
4903;SDS011;2467;48.142;11.616;2023-02-01T01:26:17;4.68;;;4.28;;
4903;SDS011;2467;48.142;11.616;2023-02-01T01:26:52;7.20;;;4.20;;
4903;SDS011;2467;48.142;11.616;2023-02-01T01:27:24;5.00;;;4.47;;
4903;SDS011;2467;48.142;11.616;2023-02-01T01:27:56;7.13;;;5.38;;
4903;SDS011;2467;48.142;11.616;2023-02-01T01:28:29;6.10;;;4.72;;
4903;SDS011;2467;48.142;11.616;2023-02-01T01:29:02;5.30;;;4.78;;
4903;SDS011;2467;48.142;11.616;2023-02-01T01:29:34;4.45;;;4.05;;
4903;SDS011;2467;48.142;11.616;2023-02-01T01:30:07;6.80;;;4.60;;
4903;SDS011;2467;48.142;11.616;2023-02-01T01:30:41;4.95;;;4.13;;
4903;SDS011;2467;48.142;11.616;2023-02-01T01:31:13;6.13;;;4.60;;
4903;SDS011;2467;48.142;11.616;2023-02-01T01:31:46;5.70;;;4.10;;
4903;SDS011;2467;48.142;11.616;2023-02-01T01:32:19;6.07;;;4.43;;
4903;SDS011;2467;48.142;11.616;2023-02-01T01:32:51;5.57;;;4.90;;
4903;SDS011;2467;48.142;11.616;2023-02-01T01:33:23;5.32;;;4.82;;
4903;SDS011;2467;48.142;11.616;2023-02-01T01:33:56;5.82;;;4.90;;
4903;SDS011;2467;48.142;11.616;2023-02-01T01:34:30;6.28;;;4.35;;
4903;SDS011;2467;48.142;11.616;2023-02-01T01:35:02;6.00;;;4.57;;
4903;SDS011;2467;48.142;11.616;2023-02-01T01:35:35;5.38;;;4.18;;
4903;SDS011;2467;48.142;11.616;2023-02-01T01:36:07;6.90;;;4.97;;
4903;SDS011;2467;48.142;11.616;2023-02-01T01:36:42;4.30;;;4.00;;
4903;SDS011;2467;48.142;11.616;2023-02-01T01:37:14;4.60;;;4.20;;
4903;SDS011;2467;48.142;11.616;2023-02-01T01:37:45;5.78;;;5.20;;
4903;SDS011;2467;48.142;11.616;2023-02-01T01:38:18;5.25;;;4.20;;
4903;SDS011;2467;48.142;11.616;2023-02-01T01:38:50;4.35;;;3.67;;
4903;SDS011;2467;48.142;11.616;2023-02-01T01:39:23;5.85;;;5.05;;
4903;SDS011;2467;48.142;11.616;2023-02-01T01:39:55;5.43;;;4.45;;
4903;SDS011;2467;48.142;11.616;2023-02-01T01:40:29;5.15;;;4.43;;
4903;SDS011;2467;48.142;11.616;2023-02-01T01:41:01;5.45;;;4.25;;
4903;SDS011;2467;48.142;11.616;2023-02-01T01:41:34;8.10;;;4.13;;
4903;SDS011;2467;48.142;11.616;2023-02-01T01:42:08;5.60;;;4.85;;
4903;SDS011;2467;48.142;11.616;2023-02-01T01:42:42;4.57;;;4.13;;
4903;SDS011;2467;48.142;11.616;2023-02-01T01:43:16;6.05;;;4.05;;
4903;SDS011;2467;48.142;11.616;2023-02-01T01:43:56;5.72;;;5.00;;
4903;SDS011;2467;48.142;11.616;2023-02-01T01:45:31;6.65;;;4.60;;
4903;SDS011;2467;48.142;11.616;2023-02-01T01:46:04;4.95;;;4.55;;
4903;SDS011;2467;48.142;11.616;2023-02-01T01:46:37;4.60;;;4.20;;
4903;SDS011;2467;48.142;11.616;2023-02-01T01:47:11;4.68;;;4.25;;
4903;SDS011;2467;48.142;11.616;2023-02-01T01:47:46;4.97;;;4.47;;
4903;SDS011;2467;48.142;11.616;2023-02-01T01:48:25;5.13;;;4.47;;
4903;SDS011;2467;48.142;11.616;2023-02-01T01:49:01;5.45;;;4.78;;
4903;SDS011;2467;48.142;11.616;2023-02-01T01:49:37;5.70;;;5.20;;
4903;SDS011;2467;48.142;11.616;2023-02-01T01:50:10;5.10;;;4.60;;
4903;SDS011;2467;48.142;11.616;2023-02-01T01:50:48;5.80;;;5.20;;
4903;SDS011;2467;48.142;11.616;2023-02-01T01:51:27;6.43;;;4.28;;
4903;SDS011;2467;48.142;11.616;2023-02-01T01:52:01;5.25;;;4.75;;
4903;SDS011;2467;48.142;11.616;2023-02-01T01:52:34;5.45;;;4.88;;
4903;SDS011;2467;48.142;11.616;2023-02-01T01:53:09;5.65;;;4.57;;
4903;SDS011;2467;48.142;11.616;2023-02-01T01:53:48;8.52;;;5.35;;
4903;SDS011;2467;48.142;11.616;2023-02-01T01:54:26;5.07;;;3.85;;
4903;SDS011;2467;48.142;11.616;2023-02-01T01:55:04;6.40;;;5.25;;
4903;SDS011;2467;48.142;11.616;2023-02-01T01:55:37;4.80;;;4.30;;
4903;SDS011;2467;48.142;11.616;2023-02-01T01:56:13;6.13;;;4.68;;
4903;SDS011;2467;48.142;11.616;2023-02-01T01:56:48;6.05;;;5.45;;
4903;SDS011;2467;48.142;11.616;2023-02-01T01:57:23;4.63;;;4.22;;
4903;SDS011;2467;48.142;11.616;2023-02-01T01:57:58;5.05;;;4.55;;
4903;SDS011;2467;48.142;11.616;2023-02-01T01:58:36;4.72;;;4.22;;
4903;SDS011;2467;48.142;11.616;2023-02-01T01:59:10;5.07;;;4.63;;
4903;SDS011;2467;48.142;11.616;2023-02-01T01:59:45;6.50;;;5.78;;
4903;SDS011;2467;48.142;11.616;2023-02-01T02:00:21;7.20;;;6.03;;
4903;SDS011;2467;48.142;11.616;2023-02-01T02:00:54;7.90;;;6.22;;
4903;SDS011;2467;48.142;11.616;2023-02-01T02:01:27;5.65;;;4.80;;
4903;SDS011;2467;48.142;11.616;2023-02-01T02:01:59;5.55;;;5.05;;
4903;SDS011;2467;48.142;11.616;2023-02-01T02:02:31;4.88;;;4.38;;
4903;SDS011;2467;48.142;11.616;2023-02-01T02:03:07;6.50;;;5.80;;
4903;SDS011;2467;48.142;11.616;2023-02-01T02:03:45;5.53;;;4.40;;
4903;SDS011;2467;48.142;11.616;2023-02-01T02:04:18;5.65;;;5.13;;
4903;SDS011;2467;48.142;11.616;2023-02-01T02:04:52;6.80;;;5.53;;
4903;SDS011;2467;48.142;11.616;2023-02-01T02:05:24;5.35;;;4.85;;
4903;SDS011;2467;48.142;11.616;2023-02-01T02:05:57;7.43;;;5.75;;
4903;SDS011;2467;48.142;11.616;2023-02-01T02:06:33;7.07;;;5.93;;
4903;SDS011;2467;48.142;11.616;2023-02-01T02:07:12;5.75;;;5.25;;
4903;SDS011;2467;48.142;11.616;2023-02-01T02:07:48;6.25;;;5.30;;
4903;SDS011;2467;48.142;11.616;2023-02-01T02:08:21;6.38;;;5.55;;
4903;SDS011;2467;48.142;11.616;2023-02-01T02:08:54;6.22;;;5.18;;
4903;SDS011;2467;48.142;11.616;2023-02-01T02:09:27;10.00;;;6.70;;
4903;SDS011;2467;48.142;11.616;2023-02-01T02:09:59;7.40;;;5.53;;
4903;SDS011;2467;48.142;11.616;2023-02-01T02:10:33;7.68;;;6.18;;
4903;SDS011;2467;48.142;11.616;2023-02-01T02:11:23;6.53;;;5.53;;
4903;SDS011;2467;48.142;11.616;2023-02-01T02:11:56;6.35;;;5.75;;
4903;SDS011;2467;48.142;11.616;2023-02-01T02:12:28;7.13;;;6.45;;
4903;SDS011;2467;48.142;11.616;2023-02-01T02:13:00;5.78;;;5.18;;
4903;SDS011;2467;48.142;11.616;2023-02-01T02:13:34;8.40;;;6.32;;
4903;SDS011;2467;48.142;11.616;2023-02-01T02:14:11;6.05;;;5.45;;
4903;SDS011;2467;48.142;11.616;2023-02-01T02:14:47;6.28;;;5.47;;
4903;SDS011;2467;48.142;11.616;2023-02-01T02:15:19;6.00;;;5.15;;
4903;SDS011;2467;48.142;11.616;2023-02-01T02:15:54;6.90;;;6.20;;
4903;SDS011;2467;48.142;11.616;2023-02-01T02:16:41;6.60;;;5.90;;
4903;SDS011;2467;48.142;11.616;2023-02-01T02:17:27;5.88;;;5.38;;
4903;SDS011;2467;48.142;11.616;2023-02-01T02:18:08;5.63;;;5.00;;
4903;SDS011;2467;48.142;11.616;2023-02-01T02:18:48;8.23;;;6.80;;
4903;SDS011;2467;48.142;11.616;2023-02-01T02:19:39;7.63;;;6.05;;
4903;SDS011;2467;48.142;11.616;2023-02-01T02:20:45;7.53;;;4.97;;
4903;SDS011;2467;48.142;11.616;2023-02-01T02:21:38;6.95;;;5.97;;
4903;SDS011;2467;48.142;11.616;2023-02-01T02:23:42;7.93;;;5.80;;
4903;SDS011;2467;48.142;11.616;2023-02-01T02:24:40;6.70;;;5.10;;
4903;SDS011;2467;48.142;11.616;2023-02-01T02:25:40;5.53;;;4.82;;
4903;SDS011;2467;48.142;11.616;2023-02-01T02:26:34;6.35;;;5.75;;
4903;SDS011;2467;48.142;11.616;2023-02-01T02:27:36;6.35;;;5.53;;
4903;SDS011;2467;48.142;11.616;2023-02-01T02:28:29;6.40;;;5.65;;
4903;SDS011;2467;48.142;11.616;2023-02-01T02:29:35;8.25;;;5.18;;
4903;SDS011;2467;48.142;11.616;2023-02-01T02:30:29;7.50;;;4.90;;
4903;SDS011;2467;48.142;11.616;2023-02-01T02:31:15;7.05;;;5.95;;
4903;SDS011;2467;48.142;11.616;2023-02-01T02:32:12;6.93;;;6.13;;
4903;SDS011;2467;48.142;11.616;2023-02-01T02:34:14;6.35;;;4.95;;
4903;SDS011;2467;48.142;11.616;2023-02-01T02:34:53;5.47;;;4.97;;
4903;SDS011;2467;48.142;11.616;2023-02-01T02:35:30;8.15;;;5.88;;
4903;SDS011;2467;48.142;11.616;2023-02-01T02:36:09;6.00;;;5.13;;
4903;SDS011;2467;48.142;11.616;2023-02-01T02:36:48;6.47;;;5.88;;
4903;SDS011;2467;48.142;11.616;2023-02-01T02:37:29;6.47;;;5.30;;
4903;SDS011;2467;48.142;11.616;2023-02-01T02:38:11;6.50;;;5.90;;
4903;SDS011;2467;48.142;11.616;2023-02-01T02:38:50;6.55;;;5.95;;
4903;SDS011;2467;48.142;11.616;2023-02-01T02:39:35;8.20;;;6.00;;
4903;SDS011;2467;48.142;11.616;2023-02-01T02:40:15;7.30;;;6.15;;
4903;SDS011;2467;48.142;11.616;2023-02-01T02:40:56;7.78;;;5.15;;
4903;SDS011;2467;48.142;11.616;2023-02-01T02:41:39;8.07;;;6.25;;
4903;SDS011;2467;48.142;11.616;2023-02-01T02:42:38;6.20;;;5.60;;
4903;SDS011;2467;48.142;11.616;2023-02-01T02:43:32;9.18;;;6.18;;
4903;SDS011;2467;48.142;11.616;2023-02-01T02:44:32;5.85;;;5.10;;
4903;SDS011;2467;48.142;11.616;2023-02-01T02:45:29;5.90;;;5.28;;
4903;SDS011;2467;48.142;11.616;2023-02-01T02:46:28;5.95;;;5.40;;
4903;SDS011;2467;48.142;11.616;2023-02-01T02:47:28;7.28;;;5.75;;
4903;SDS011;2467;48.142;11.616;2023-02-01T02:48:08;6.13;;;5.38;;
4903;SDS011;2467;48.142;11.616;2023-02-01T02:48:50;5.72;;;5.22;;
4903;SDS011;2467;48.142;11.616;2023-02-01T02:49:27;6.20;;;5.60;;
4903;SDS011;2467;48.142;11.616;2023-02-01T02:50:15;7.32;;;5.30;;
4903;SDS011;2467;48.142;11.616;2023-02-01T02:51:11;5.65;;;5.05;;
4903;SDS011;2467;48.142;11.616;2023-02-01T02:52:06;5.50;;;4.68;;
4903;SDS011;2467;48.142;11.616;2023-02-01T02:53:03;6.07;;;5.40;;
4903;SDS011;2467;48.142;11.616;2023-02-01T02:54:02;6.57;;;5.00;;
4903;SDS011;2467;48.142;11.616;2023-02-01T02:54:55;5.82;;;5.22;;
4903;SDS011;2467;48.142;11.616;2023-02-01T02:55:31;5.85;;;4.97;;
4903;SDS011;2467;48.142;11.616;2023-02-01T02:56:06;6.85;;;5.60;;
4903;SDS011;2467;48.142;11.616;2023-02-01T02:56:59;6.85;;;5.30;;
4903;SDS011;2467;48.142;11.616;2023-02-01T02:57:53;6.65;;;5.60;;
4903;SDS011;2467;48.142;11.616;2023-02-01T02:58:45;7.25;;;5.75;;
4903;SDS011;2467;48.142;11.616;2023-02-01T02:59:37;7.50;;;5.78;;
4903;SDS011;2467;48.142;11.616;2023-02-01T03:00:30;7.25;;;5.03;;
4903;SDS011;2467;48.142;11.616;2023-02-01T03:01:23;7.18;;;5.80;;
4903;SDS011;2467;48.142;11.616;2023-02-01T03:02:13;5.40;;;4.90;;
4903;SDS011;2467;48.142;11.616;2023-02-01T03:03:05;4.72;;;4.20;;
4903;SDS011;2467;48.142;11.616;2023-02-01T03:03:57;7.47;;;5.82;;
4903;SDS011;2467;48.142;11.616;2023-02-01T03:04:40;6.40;;;4.90;;
4903;SDS011;2467;48.142;11.616;2023-02-01T03:05:13;6.40;;;5.75;;
4903;SDS011;2467;48.142;11.616;2023-02-01T03:05:45;5.90;;;5.30;;
4903;SDS011;2467;48.142;11.616;2023-02-01T03:06:22;6.43;;;5.85;;
4903;SDS011;2467;48.142;11.616;2023-02-01T03:06:55;6.65;;;5.95;;
4903;SDS011;2467;48.142;11.616;2023-02-01T03:07:46;5.82;;;5.28;;
4903;SDS011;2467;48.142;11.616;2023-02-01T03:08:24;6.10;;;5.50;;
4903;SDS011;2467;48.142;11.616;2023-02-01T03:08:58;8.80;;;5.82;;
4903;SDS011;2467;48.142;11.616;2023-02-01T03:09:33;5.60;;;5.05;;
4903;SDS011;2467;48.142;11.616;2023-02-01T03:10:09;6.45;;;5.85;;
4903;SDS011;2467;48.142;11.616;2023-02-01T03:10:51;6.78;;;4.88;;
4903;SDS011;2467;48.142;11.616;2023-02-01T03:11:27;6.63;;;4.22;;
4903;SDS011;2467;48.142;11.616;2023-02-01T03:12:21;5.60;;;5.05;;
4903;SDS011;2467;48.142;11.616;2023-02-01T03:13:13;6.50;;;5.90;;
4903;SDS011;2467;48.142;11.616;2023-02-01T03:13:52;5.78;;;5.18;;
4903;SDS011;2467;48.142;11.616;2023-02-01T03:14:27;6.10;;;5.50;;
4903;SDS011;2467;48.142;11.616;2023-02-01T03:15:05;5.78;;;5.28;;
4903;SDS011;2467;48.142;11.616;2023-02-01T03:15:42;6.80;;;4.95;;
4903;SDS011;2467;48.142;11.616;2023-02-01T03:16:21;4.93;;;4.43;;
4903;SDS011;2467;48.142;11.616;2023-02-01T03:16:58;6.47;;;5.40;;
4903;SDS011;2467;48.142;11.616;2023-02-01T03:17:35;5.78;;;5.18;;
4903;SDS011;2467;48.142;11.616;2023-02-01T03:18:15;7.93;;;4.57;;
4903;SDS011;2467;48.142;11.616;2023-02-01T03:18:50;6.10;;;5.15;;
4903;SDS011;2467;48.142;11.616;2023-02-01T03:19:28;5.80;;;5.30;;
4903;SDS011;2467;48.142;11.616;2023-02-01T03:20:05;5.40;;;4.90;;
4903;SDS011;2467;48.142;11.616;2023-02-01T03:20:40;6.88;;;6.18;;
4903;SDS011;2467;48.142;11.616;2023-02-01T03:21:17;5.68;;;4.63;;
4903;SDS011;2467;48.142;11.616;2023-02-01T03:21:53;6.20;;;5.20;;
4903;SDS011;2467;48.142;11.616;2023-02-01T03:22:29;6.03;;;5.30;;
4903;SDS011;2467;48.142;11.616;2023-02-01T03:23:02;6.22;;;5.20;;
4903;SDS011;2467;48.142;11.616;2023-02-01T03:23:38;5.18;;;4.65;;
4903;SDS011;2467;48.142;11.616;2023-02-01T03:24:11;5.18;;;4.68;;
4903;SDS011;2467;48.142;11.616;2023-02-01T03:24:46;5.82;;;5.22;;
4903;SDS011;2467;48.142;11.616;2023-02-01T03:25:22;6.13;;;5.40;;
4903;SDS011;2467;48.142;11.616;2023-02-01T03:25:58;6.38;;;4.65;;
4903;SDS011;2467;48.142;11.616;2023-02-01T03:26:32;5.68;;;5.10;;
4903;SDS011;2467;48.142;11.616;2023-02-01T03:27:11;5.05;;;4.38;;
4903;SDS011;2467;48.142;11.616;2023-02-01T03:27:51;4.93;;;4.25;;
4903;SDS011;2467;48.142;11.616;2023-02-01T03:28:26;5.57;;;5.00;;
4903;SDS011;2467;48.142;11.616;2023-02-01T03:29:05;4.60;;;4.20;;
4903;SDS011;2467;48.142;11.616;2023-02-01T03:29:44;4.88;;;4.15;;
4903;SDS011;2467;48.142;11.616;2023-02-01T03:30:21;5.43;;;4.47;;
4903;SDS011;2467;48.142;11.616;2023-02-01T03:30:56;6.03;;;5.10;;
4903;SDS011;2467;48.142;11.616;2023-02-01T03:31:29;4.78;;;4.38;;
4903;SDS011;2467;48.142;11.616;2023-02-01T03:32:02;6.85;;;6.20;;
4903;SDS011;2467;48.142;11.616;2023-02-01T03:32:35;5.20;;;4.70;;
4903;SDS011;2467;48.142;11.616;2023-02-01T03:33:24;5.57;;;4.97;;
4903;SDS011;2467;48.142;11.616;2023-02-01T03:33:58;5.45;;;4.40;;
4903;SDS011;2467;48.142;11.616;2023-02-01T03:34:31;5.65;;;5.07;;
4903;SDS011;2467;48.142;11.616;2023-02-01T03:35:04;4.80;;;4.15;;
4903;SDS011;2467;48.142;11.616;2023-02-01T03:35:39;6.05;;;5.10;;
4903;SDS011;2467;48.142;11.616;2023-02-01T03:36:18;6.40;;;4.68;;
4903;SDS011;2467;48.142;11.616;2023-02-01T03:36:56;5.15;;;4.65;;
4903;SDS011;2467;48.142;11.616;2023-02-01T03:37:32;8.38;;;4.70;;
4903;SDS011;2467;48.142;11.616;2023-02-01T03:38:08;5.05;;;4.53;;
4903;SDS011;2467;48.142;11.616;2023-02-01T03:38:49;5.50;;;4.30;;
4903;SDS011;2467;48.142;11.616;2023-02-01T03:39:28;5.57;;;5.07;;
4903;SDS011;2467;48.142;11.616;2023-02-01T03:40:05;4.88;;;4.45;;
4903;SDS011;2467;48.142;11.616;2023-02-01T03:40:42;5.72;;;5.20;;
4903;SDS011;2467;48.142;11.616;2023-02-01T03:41:20;5.78;;;4.50;;
4903;SDS011;2467;48.142;11.616;2023-02-01T03:41:59;5.00;;;4.40;;
4903;SDS011;2467;48.142;11.616;2023-02-01T03:42:34;5.60;;;5.07;;
4903;SDS011;2467;48.142;11.616;2023-02-01T03:43:10;5.93;;;4.60;;
4903;SDS011;2467;48.142;11.616;2023-02-01T03:43:49;5.07;;;4.63;;
4903;SDS011;2467;48.142;11.616;2023-02-01T03:44:24;6.15;;;4.43;;
4903;SDS011;2467;48.142;11.616;2023-02-01T03:45:03;7.72;;;4.88;;
4903;SDS011;2467;48.142;11.616;2023-02-01T03:45:41;5.32;;;4.82;;
4903;SDS011;2467;48.142;11.616;2023-02-01T03:46:17;6.47;;;5.55;;
4903;SDS011;2467;48.142;11.616;2023-02-01T03:46:55;6.40;;;4.25;;